Time;durP1;ratioP1;P1;durP2;ratioP2;P2;SDS_P1;SDS_P2;PMS_P1;PMS_P2;Temp;Humidity;BMP_temperature;BMP_pressure;BME280_temperature;BME280_humidity;BME280_pressure;Samples;Min_cycle;Max_cycle;Signal;HPM_P1;HPM_P2
2024/02/23 00:01:27;;;;;;;9.20;1.98;;;;;;;7.42;80.74;99052.84;5106647;28;20052;-69
2024/02/23 00:03:55;;;;;;;9.43;1.75;;;;;;;7.41;80.32;99056.72;5100225;28;20060;-69
2024/02/23 00:06:27;;;;;;;11.23;1.88;;;;;;;7.51;80.08;99057.16;5093200;28;20052;-69
2024/02/23 00:08:55;;;;;;;16.27;2.28;;;;;;;7.39;80.43;99067.22;5105790;28;20058;-70
2024/02/23 00:11:23;;;;;;;17.30;1.88;;;;;;;7.54;80.20;99077.56;5108354;28;20059;-70
2024/02/23 00:13:50;;;;;;;9.38;2.33;;;;;;;7.27;80.59;99067.13;5108897;28;20055;-70
2024/02/23 00:16:18;;;;;;;9.10;1.55;;;;;;;7.45;80.24;99066.69;5108628;28;20081;-69
2024/02/23 00:18:45;;;;;;;16.90;1.85;;;;;;;7.33;80.23;99065.78;5106131;28;20064;-69
2024/02/23 00:21:13;;;;;;;9.55;1.73;;;;;;;7.35;79.59;99064.34;5106336;28;20090;-70
2024/02/23 00:23:40;;;;;;;9.57;1.65;;;;;;;7.31;79.88;99062.56;5107231;28;20067;-69
2024/02/23 00:26:07;;;;;;;6.78;1.65;;;;;;;7.29;79.73;99064.84;5072980;28;20044;-69
2024/02/23 00:28:35;;;;;;;13.27;1.50;;;;;;;7.33;80.61;99063.06;5111105;28;20059;-70
2024/02/23 00:31:03;;;;;;;9.77;1.33;;;;;;;7.37;81.03;99067.56;5096156;28;20056;-69
2024/02/23 00:33:30;;;;;;;13.68;2.58;;;;;;;7.32;80.10;99069.69;5091678;28;20048;-69
2024/02/23 00:35:58;;;;;;;13.07;2.15;;;;;;;7.39;79.76;99067.22;5091595;28;20051;-70
2024/02/23 00:38:25;;;;;;;8.88;1.60;;;;;;;7.14;80.42;99062.69;5090474;28;20067;-69
2024/02/23 00:40:52;;;;;;;11.70;2.40;;;;;;;7.18;81.23;99074.59;5090386;28;20051;-70
2024/02/23 00:43:20;;;;;;;15.75;2.30;;;;;;;7.11;81.61;99068.84;5088433;28;20048;-70
2024/02/23 00:45:50;;;;;;;11.45;2.03;;;;;;;7.36;82.05;99068.66;5091375;28;20063;-70
2024/02/23 00:48:18;;;;;;;21.20;2.10;;;;;;;7.34;80.39;99059.97;5090181;28;20051;-69
2024/02/23 00:50:45;;;;;;;9.73;1.77;;;;;;;7.33;81.21;99063.06;5091541;28;20063;-69
2024/02/23 00:53:12;;;;;;;12.63;2.10;;;;;;;7.25;81.70;99064.72;5089862;28;20048;-69
2024/02/23 00:55:40;;;;;;;11.68;2.08;;;;;;;7.23;81.63;99067.00;5091150;28;20048;-69
2024/02/23 00:58:07;;;;;;;15.68;2.08;;;;;;;7.31;82.47;99062.56;5091537;28;20066;-69
2024/02/23 01:00:34;;;;;;;13.43;1.65;;;;;;;7.39;82.70;99076.22;5091773;28;20062;-70
2024/02/23 01:03:02;;;;;;;16.33;2.33;;;;;;;7.22;83.24;99067.34;5103782;28;20078;-69
2024/02/23 01:05:30;;;;;;;15.52;2.33;;;;;;;7.01;83.61;99063.75;5099262;28;20059;-69
2024/02/23 01:07:58;;;;;;;14.82;2.90;;;;;;;7.07;83.72;99055.00;5108910;28;20055;-69
2024/02/23 01:10:26;;;;;;;8.32;1.70;;;;;;;7.13;83.82;99066.56;5109727;28;20586;-71
2024/02/23 01:12:54;;;;;;;13.23;2.40;;;;;;;7.26;83.03;99062.78;5109762;28;20043;-70
2024/02/23 01:15:21;;;;;;;12.20;2.17;;;;;;;7.16;82.75;99068.66;5111426;28;20052;-69
2024/02/23 01:17:48;;;;;;;15.32;2.35;;;;;;;7.01;84.42;99061.78;5092357;28;20051;-70
2024/02/23 01:20:17;;;;;;;15.23;1.77;;;;;;;6.99;84.42;99052.31;5090787;28;20055;-69
2024/02/23 01:22:44;;;;;;;15.60;2.25;;;;;;;6.83;84.95;99054.81;5089791;28;20048;-70
2024/02/23 01:25:11;;;;;;;10.88;2.47;;;;;;;7.12;85.88;99049.34;5071852;28;20060;-70
2024/02/23 01:27:40;;;;;;;17.45;2.40;;;;;;;6.95;85.81;99051.38;5091420;28;20059;-69
2024/02/23 01:30:08;;;;;;;14.20;2.40;;;;;;;6.85;86.30;99042.38;5089665;28;20055;-69
2024/02/23 01:32:37;;;;;;;12.65;2.85;;;;;;;7.03;85.48;99039.56;5097109;28;20048;-70
2024/02/23 01:35:06;;;;;;;22.63;2.85;;;;;;;7.30;85.03;99050.03;5100622;28;20052;-70
2024/02/23 01:37:33;;;;;;;14.70;2.63;;;;;;;7.16;84.74;99041.25;5087763;28;20090;-70
2024/02/23 01:40:01;;;;;;;15.85;2.53;;;;;;;7.04;84.76;99041.19;5110049;28;20060;-69
2024/02/23 01:42:28;;;;;;;13.77;2.38;;;;;;;7.12;84.86;99026.63;5110810;28;20055;-69
2024/02/23 01:44:56;;;;;;;18.67;2.25;;;;;;;7.10;85.16;99028.88;5111574;28;20536;-70
2024/02/23 01:47:24;;;;;;;14.85;1.85;;;;;;;6.99;84.58;99031.19;5109676;28;20055;-69
2024/02/23 01:49:53;;;;;;;13.60;2.58;;;;;;;7.11;85.16;99020.38;5110028;28;20051;-70
2024/02/23 01:52:22;;;;;;;;;;;;;;;6.92;85.20;99022.72;5110930;28;20675;-69
2024/02/23 01:54:49;;;;;;;13.10;1.77;;;;;;;6.97;85.79;99027.22;5098429;28;19931;-69
2024/02/23 01:57:17;;;;;;;20.38;2.72;;;;;;;7.00;85.35;99024.59;5090245;28;20717;-69
2024/02/23 02:00:06;;;;;;;18.55;1.98;;;;;;;7.17;85.36;99013.53;5107736;28;20062;-70
2024/02/23 02:02:38;;;;;;;13.98;2.17;;;;;;;7.08;84.72;99017.50;5108957;28;20062;-70
2024/02/23 02:05:07;;;;;;;13.60;2.30;;;;;;;7.20;84.77;99015.63;5110514;28;20048;-70
2024/02/23 02:07:35;;;;;;;17.70;2.75;;;;;;;6.99;84.87;99025.72;5092571;28;20686;-69
2024/02/23 02:10:03;;;;;;;8.48;1.85;;;;;;;7.21;84.79;99016.41;5088830;28;20052;-71
2024/02/23 02:12:31;;;;;;;14.27;2.47;;;;;;;7.07;84.81;99019.41;5099949;28;20056;-69
2024/02/23 02:15:01;;;;;;;19.67;2.78;;;;;;;6.84;84.96;99024.38;5110556;28;20051;-69
2024/02/23 02:17:28;;;;;;;;;;;;;;;7.10;85.65;99026.16;5111425;28;20483;-69
2024/02/23 02:19:58;;;;;;;10.40;1.83;;;;;;;7.13;85.97;99023.56;5109963;28;19930;-69
2024/02/23 02:22:26;;;;;;;10.50;1.95;;;;;;;7.12;85.34;99016.47;5106194;28;20086;-69
2024/02/23 02:24:53;;;;;;;17.80;2.35;;;;;;;7.03;85.00;99013.00;5099048;28;20055;-69
2024/02/23 02:27:21;;;;;;;11.48;2.00;;;;;;;7.28;84.76;99012.03;5090021;28;20742;-69
2024/02/23 02:29:50;;;;;;;15.82;2.55;;;;;;;7.11;84.96;99003.94;5090422;28;20052;-69
2024/02/23 02:32:18;;;;;;;16.00;2.42;;;;;;;7.28;84.76;99005.75;5086781;28;20059;-69
2024/02/23 02:34:45;;;;;;;8.60;1.70;;;;;;;7.46;83.36;99005.28;5089633;28;20048;-68
2024/02/23 02:37:12;;;;;;;12.90;2.45;;;;;;;7.20;83.86;99010.13;5099529;28;20173;-69
2024/02/23 02:39:40;;;;;;;13.18;2.00;;;;;;;7.25;84.78;98987.25;5110132;28;20493;-69
2024/02/23 02:42:07;;;;;;;14.07;1.88;;;;;;;7.32;84.24;98988.31;5109793;28;20051;-69
2024/02/23 02:44:35;;;;;;;11.60;1.75;;;;;;;7.32;83.67;98987.53;5108368;28;20075;-70
2024/02/23 02:47:02;;;;;;;12.15;2.00;;;;;;;7.12;84.56;98971.88;5108280;28;20063;-69
2024/02/23 02:49:29;;;;;;;9.85;1.83;;;;;;;7.18;85.39;98973.28;5097713;28;20052;-71
2024/02/23 02:51:57;;;;;;;11.43;2.20;;;;;;;7.25;85.54;98973.56;5089005;28;20063;-66
2024/02/23 02:54:24;;;;;;;10.35;1.50;;;;;;;7.09;85.21;98981.56;5091328;28;20050;-66
2024/02/23 02:56:54;;;;;;;8.60;1.58;;;;;;;6.91;85.00;98982.00;5107680;28;20050;-67
2024/02/23 02:59:21;;;;;;;10.57;1.85;;;;;;;7.08;85.40;98977.22;5109656;28;20059;-66
2024/02/23 03:01:53;;;;;;;9.95;1.77;;;;;;;7.20;85.37;98974.53;5107656;28;20066;-67
2024/02/23 03:04:20;;;;;;;12.50;1.90;;;;;;;7.25;83.88;98973.56;5107944;28;20054;-65
2024/02/23 03:06:48;;;;;;;12.55;1.90;;;;;;;7.10;84.16;98968.66;5109158;28;20546;-65
2024/02/23 03:09:15;;;;;;;15.70;2.55;;;;;;;6.95;84.59;98961.03;5109698;28;20055;-66
2024/02/23 03:11:43;;;;;;;7.50;1.67;;;;;;;7.22;84.25;98963.28;5107672;28;20198;-65
2024/02/23 03:14:10;;;;;;;10.98;2.03;;;;;;;7.10;83.85;98968.66;5090891;28;20063;-65
2024/02/23 03:16:38;;;;;;;13.48;1.80;;;;;;;7.02;84.54;98959.38;5109619;28;20058;-64
2024/02/23 03:19:07;;;;;;;13.18;1.88;;;;;;;6.99;84.71;98962.00;5096720;28;20058;-66
2024/02/23 03:21:34;;;;;;;11.73;2.38;;;;;;;6.92;85.03;98948.03;5088575;28;20051;-66
2024/02/23 03:24:06;;;;;;;13.18;1.90;;;;;;;6.83;85.06;98943.41;5071019;28;20062;-66
2024/02/23 03:26:33;;;;;;;10.73;1.92;;;;;;;6.95;86.77;98939.97;5105021;28;20051;-69
2024/02/23 03:29:01;;;;;;;9.23;1.75;;;;;;;6.99;84.86;98929.16;5109311;28;20051;-68
2024/02/23 03:31:28;;;;;;;12.27;1.92;;;;;;;7.10;84.38;98931.13;5073095;28;20062;-65
2024/02/23 03:33:56;;;;;;;11.60;1.60;;;;;;;7.26;85.18;98931.34;5106799;28;20051;-65
2024/02/23 03:36:24;;;;;;;12.45;1.90;;;;;;;6.70;85.55;98929.97;5107457;28;20048;-66
2024/02/23 03:38:51;;;;;;;19.02;1.60;;;;;;;6.94;86.84;98924.66;5090654;28;20052;-65
2024/02/23 03:41:18;;;;;;;13.35;1.70;;;;;;;7.13;87.02;98907.78;5090732;28;20051;-66
2024/02/23 03:43:45;;;;;;;15.52;1.80;;;;;;;7.12;85.80;98908.91;5107354;28;20814;-65
2024/02/23 03:46:14;;;;;;;12.45;2.03;;;;;;;7.11;85.85;98908.13;5108550;28;20060;-65
2024/02/23 03:48:42;;;;;;;13.32;1.77;;;;;;;6.99;85.87;98907.25;5090654;28;20055;-66
2024/02/23 03:51:09;;;;;;;13.70;1.77;;;;;;;7.12;87.23;98908.91;5090685;28;20055;-65
2024/02/23 03:53:36;;;;;;;14.60;1.98;;;;;;;7.16;86.10;98904.38;5074328;28;20070;-67
2024/02/23 03:56:04;;;;;;;12.75;2.17;;;;;;;7.14;85.75;98906.63;5089330;28;20066;-67
2024/02/23 03:58:31;;;;;;;10.90;1.92;;;;;;;7.12;85.40;98901.50;5095416;28;20040;-65
2024/02/23 04:00:59;;;;;;;13.85;1.70;;;;;;;7.20;84.71;98903.34;5105072;28;20051;-65
2024/02/23 04:03:26;;;;;;;12.52;2.55;;;;;;;7.15;84.43;98895.34;5106321;28;20051;-66
2024/02/23 04:05:54;;;;;;;11.18;1.70;;;;;;;7.04;84.84;98885.16;5106638;28;20636;-66
2024/02/23 04:08:21;;;;;;;19.08;1.98;;;;;;;7.14;86.10;98891.03;5102593;28;20056;-66
2024/02/23 04:10:48;;;;;;;13.52;2.13;;;;;;;7.22;85.04;98878.41;5105910;28;20048;-66
2024/02/23 04:13:17;;;;;;;11.43;2.85;;;;;;;7.06;85.34;98894.59;5101714;28;20044;-66
2024/02/23 04:15:45;;;;;;;15.18;2.97;;;;;;;7.18;85.24;98888.41;5086696;28;20052;-66
2024/02/23 04:18:12;;;;;;;11.27;1.73;;;;;;;6.79;85.57;98882.28;5087020;28;20056;-66
2024/02/23 04:20:39;;;;;;;9.80;1.75;;;;;;;6.94;87.50;98864.44;5087968;28;20060;-65
2024/02/23 04:23:07;;;;;;;12.55;2.17;;;;;;;6.96;86.24;98870.38;5087063;28;20059;-66
2024/02/23 04:25:34;;;;;;;14.18;2.42;;;;;;;7.08;85.88;98869.66;5088140;28;20590;-66
2024/02/23 04:28:02;;;;;;;12.18;1.90;;;;;;;6.82;86.72;98876.13;5086016;28;20059;-66
2024/02/23 04:30:29;;;;;;;15.52;1.83;;;;;;;7.00;85.92;98867.78;5069279;28;20048;-66
2024/02/23 04:32:56;;;;;;;9.65;1.50;;;;;;;7.09;85.79;98869.31;5071078;28;20052;-66
2024/02/23 04:35:23;;;;;;;10.30;1.50;;;;;;;6.95;85.61;98868.78;5093063;28;20791;-66
2024/02/23 04:37:51;;;;;;;12.77;1.80;;;;;;;6.95;85.63;98871.53;5104219;28;20047;-66
2024/02/23 04:40:18;;;;;;;10.02;2.10;;;;;;;6.88;85.86;98868.53;5085556;28;20056;-66
2024/02/23 04:42:47;;;;;;;15.77;1.70;;;;;;;6.93;86.04;98879.28;5108000;28;20462;-66
2024/02/23 04:45:14;;;;;;;11.32;2.35;;;;;;;6.93;86.26;98873.81;5108359;28;20059;-66
2024/02/23 04:47:42;;;;;;;12.15;1.67;;;;;;;6.92;85.79;98876.88;5085401;28;20055;-67
2024/02/23 04:50:10;;;;;;;12.32;1.80;;;;;;;6.95;85.95;98878.94;5085584;28;20067;-65
2024/02/23 04:52:37;;;;;;;15.57;2.40;;;;;;;6.92;85.26;98876.88;5087245;28;20048;-66
2024/02/23 04:55:05;;;;;;;13.27;2.42;;;;;;;7.19;85.25;98879.84;5085775;28;20859;-66
2024/02/23 04:57:32;;;;;;;13.63;1.40;;;;;;;6.79;85.66;98881.47;5086188;28;20048;-65
2024/02/23 04:59:59;;;;;;;16.52;1.88;;;;;;;7.05;85.44;98875.78;5086118;28;20060;-67
2024/02/23 05:02:31;;;;;;;10.63;1.55;;;;;;;6.93;85.73;98887.47;5085975;28;20075;-66
2024/02/23 05:04:59;;;;;;;10.32;1.75;;;;;;;6.82;85.50;98876.13;5084880;28;20060;-67
2024/02/23 05:07:26;;;;;;;11.45;1.85;;;;;;;6.84;85.37;98881.28;5086965;28;20059;-67
2024/02/23 05:09:53;;;;;;;12.05;1.75;;;;;;;6.96;85.52;98875.09;5068710;28;20056;-66
2024/02/23 05:12:21;;;;;;;17.48;2.05;;;;;;;7.00;85.21;98881.47;5087417;28;20931;-66
2024/02/23 05:14:48;;;;;;;10.32;1.48;;;;;;;6.92;85.25;98872.22;5088863;28;20062;-69
2024/02/23 05:17:15;;;;;;;12.60;2.05;;;;;;;6.58;86.67;98877.91;5090732;28;20783;-65
2024/02/23 05:19:43;;;;;;;12.70;1.90;;;;;;;6.60;86.71;98876.47;5086655;28;20048;-66
2024/02/23 05:22:10;;;;;;;13.48;1.63;;;;;;;6.71;87.22;98885.09;5109736;28;20047;-66
2024/02/23 05:24:39;;;;;;;11.85;2.13;;;;;;;6.55;87.80;98889.53;5091045;28;20498;-67
2024/02/23 05:27:06;;;;;;;15.50;2.08;;;;;;;6.54;87.69;98883.25;5088925;28;20608;-66
2024/02/23 05:29:34;;;;;;;8.73;1.92;;;;;;;6.58;87.04;98892.41;5091022;28;20062;-66
2024/02/23 05:32:01;;;;;;;11.77;2.28;;;;;;;6.65;87.04;98889.13;5098039;28;20055;-66
2024/02/23 05:34:28;;;;;;;14.68;1.73;;;;;;;6.62;86.69;98893.34;5110561;28;20530;-66
2024/02/23 05:36:56;;;;;;;17.23;1.90;;;;;;;6.76;87.20;98893.88;5110710;28;20058;-65
2024/02/23 05:39:23;;;;;;;8.02;1.80;;;;;;;6.75;87.20;98896.94;5111085;28;20055;-66
2024/02/23 05:41:50;;;;;;;15.05;2.22;;;;;;;6.62;87.60;98887.06;5092623;28;20495;-66
2024/02/23 05:44:18;;;;;;;13.50;2.17;;;;;;;6.78;86.47;98899.81;5101712;28;20047;-66
2024/02/23 05:46:45;;;;;;;11.38;1.50;;;;;;;6.80;86.48;98900.28;5109351;28;20059;-66
2024/02/23 05:49:12;;;;;;;13.98;2.25;;;;;;;6.83;86.29;98893.38;5098278;28;20071;-65
2024/02/23 05:51:40;;;;;;;13.70;2.22;;;;;;;6.70;87.11;98894.41;5088614;28;20048;-65
2024/02/23 05:54:08;;;;;;;12.50;1.73;;;;;;;6.85;86.58;98894.63;5071629;28;20059;-66
2024/02/23 05:56:37;;;;;;;14.70;1.60;;;;;;;6.76;86.29;98887.63;5090370;28;20052;-66
2024/02/23 05:59:06;;;;;;;15.38;2.47;;;;;;;6.78;86.60;98888.88;5088804;28;20513;-65
2024/02/23 06:01:33;;;;;;;9.45;1.83;;;;;;;7.04;86.23;98882.41;5088972;28;20052;-66
2024/02/23 06:04:01;;;;;;;10.55;1.45;;;;;;;6.82;85.96;98892.56;5104476;28;20059;-66
2024/02/23 06:06:28;;;;;;;11.55;1.75;;;;;;;6.52;86.67;98888.25;5096651;28;20491;-65
2024/02/23 06:08:56;;;;;;;8.90;1.50;;;;;;;6.76;86.75;98877.44;5099653;28;20728;-66
2024/02/23 06:11:23;;;;;;;10.63;1.95;;;;;;;6.64;86.95;98877.38;5109110;28;20534;-65
2024/02/23 06:13:51;;;;;;;9.10;1.50;;;;;;;6.59;86.95;98872.09;5109625;28;20059;-66
2024/02/23 06:16:18;;;;;;;9.10;1.65;;;;;;;6.65;86.83;98878.19;5108111;28;20055;-65
2024/02/23 06:18:45;;;;;;;15.35;2.20;;;;;;;6.59;87.94;98871.31;5108656;28;20411;-66
2024/02/23 06:21:14;;;;;;;13.30;1.50;;;;;;;6.70;87.61;98878.00;5108659;28;20538;-65
2024/02/23 06:23:42;;;;;;;13.35;1.67;;;;;;;6.67;87.03;98862.25;5108036;28;20529;-67
2024/02/23 06:26:09;;;;;;;14.73;2.15;;;;;;;6.76;86.74;98866.50;5108965;28;20058;-66
2024/02/23 06:28:38;;;;;;;11.38;1.55;;;;;;;6.70;87.44;98861.56;5110152;28;20058;-66
2024/02/23 06:31:06;;;;;;;9.82;1.70;;;;;;;6.65;87.42;98848.91;5108756;28;20054;-67
2024/02/23 06:33:34;;;;;;;12.65;1.67;;;;;;;6.65;87.53;98854.38;5108690;28;20047;-66
2024/02/23 06:36:03;;;;;;;11.98;2.17;;;;;;;6.87;87.17;98845.03;5109418;28;20047;-67
2024/02/23 06:38:30;;;;;;;11.40;2.08;;;;;;;6.85;86.33;98853.56;5110115;28;20059;-67
2024/02/23 06:40:57;;;;;;;10.75;1.85;;;;;;;6.62;86.96;98856.97;5092036;28;20090;-66
2024/02/23 06:43:25;;;;;;;11.88;1.60;;;;;;;6.82;86.63;98862.44;5089081;28;20083;-67
2024/02/23 06:45:52;;;;;;;13.88;2.10;;;;;;;6.85;86.43;98867.25;5108710;28;20066;-66
2024/02/23 06:48:20;;;;;;;7.10;1.30;;;;;;;6.66;86.82;98857.91;5108257;28;20055;-66
2024/02/23 06:50:47;;;;;;;9.30;1.48;;;;;;;6.69;86.70;98860.00;5108122;28;20055;-67
2024/02/23 06:53:15;;;;;;;11.38;1.70;;;;;;;6.70;86.37;98867.03;5108558;28;20051;-66
2024/02/23 06:55:43;;;;;;;7.05;1.52;;;;;;;6.82;85.60;98867.13;5109833;28;20051;-67
2024/02/23 06:58:10;;;;;;;10.85;1.35;;;;;;;6.85;85.78;98867.25;5108596;28;20059;-67
2024/02/23 07:00:38;;;;;;;9.45;1.30;;;;;;;7.06;85.46;98869.97;5109970;28;20154;-66
2024/02/23 07:03:05;;;;;;;10.90;1.70;;;;;;;7.06;84.98;98871.94;5091279;28;20070;-66
2024/02/23 07:05:35;;;;;;;10.45;2.00;;;;;;;6.95;85.47;98877.00;5107504;28;20059;-66
2024/02/23 07:08:03;;;;;;;8.75;1.60;;;;;;;6.82;85.69;98878.88;5108242;28;20054;-66
2024/02/23 07:10:36;;;;;;;11.10;1.63;;;;;;;6.75;86.17;98867.66;5100282;28;20048;-67
2024/02/23 07:13:08;;;;;;;12.25;2.25;;;;;;;6.84;86.74;98886.75;5096511;28;20047;-66
2024/02/23 07:15:36;;;;;;;18.52;1.80;;;;;;;6.64;87.37;98874.66;5110053;28;20051;-66
2024/02/23 07:18:03;;;;;;;9.32;1.65;;;;;;;6.88;86.96;98874.00;5109124;28;20047;-67
2024/02/23 07:20:31;;;;;;;16.67;2.33;;;;;;;6.74;86.46;98882.47;5108918;28;20055;-65
2024/02/23 07:22:58;;;;;;;12.85;2.05;;;;;;;6.89;87.16;98883.81;5109933;28;20062;-67
2024/02/23 07:25:26;;;;;;;9.13;1.92;;;;;;;7.11;86.29;98878.00;5109115;28;20785;-67
2024/02/23 07:27:53;;;;;;;12.80;2.38;;;;;;;7.25;85.65;98877.72;5102349;28;20055;-66
2024/02/23 07:30:20;;;;;;;11.80;1.80;;;;;;;7.09;86.09;98882.19;5096623;28;20051;-67
2024/02/23 07:32:48;;;;;;;13.82;2.63;;;;;;;7.10;85.77;98878.31;5088883;28;20621;-67
2024/02/23 07:35:19;;;;;;;12.45;2.17;;;;;;;7.20;85.95;98881.44;5105612;28;20056;-67
2024/02/23 07:37:47;;;;;;;11.95;2.40;;;;;;;7.02;85.97;98865.50;5087086;28;20063;-65
2024/02/23 07:40:15;;;;;;;13.65;2.13;;;;;;;6.90;86.92;98884.63;5088765;28;20052;-66
2024/02/23 07:42:47;;;;;;;12.82;1.92;;;;;;;7.11;86.58;98883.47;5104087;28;20059;-65
2024/02/23 07:45:14;;;;;;;9.43;1.85;;;;;;;7.09;86.30;98882.19;5087574;28;20063;-67
2024/02/23 07:47:42;;;;;;;13.13;2.60;;;;;;;7.08;87.22;98883.34;5108946;28;20059;-67
2024/02/23 07:50:09;;;;;;;16.27;2.17;;;;;;;7.33;86.34;98885.03;5108667;28;20050;-68
2024/02/23 07:52:38;;;;;;;13.25;2.25;;;;;;;7.39;86.08;98898.19;5109123;28;20047;-67
2024/02/23 07:55:06;;;;;;;17.52;2.35;;;;;;;7.29;85.99;98906.81;5107794;28;20055;-65
2024/02/23 07:57:34;;;;;;;12.57;2.38;;;;;;;7.26;87.43;98912.16;5093990;28;20777;-66
2024/02/23 08:00:02;;;;;;;19.90;2.30;;;;;;;7.47;86.58;98908.28;5095826;28;20050;-68
2024/02/23 08:02:38;;;;;;;12.57;2.05;;;;;;;7.69;87.49;98913.38;5089575;28;20048;-66
2024/02/23 08:05:07;;;;;;;9.82;2.08;;;;;;;7.55;86.31;98896.41;5098893;28;20043;-65
2024/02/23 08:07:34;;;;;;;16.55;2.33;;;;;;;7.50;85.74;98909.53;5093147;28;20064;-66
2024/02/23 08:10:04;;;;;;;17.35;2.88;;;;;;;7.46;85.10;98906.66;5088040;28;20063;-68
2024/02/23 08:12:32;;;;;;;15.30;2.05;;;;;;;7.49;86.59;98916.16;5090871;28;20055;-66
2024/02/23 08:15:01;;;;;;;13.13;2.45;;;;;;;7.43;86.17;98923.78;5093464;28;20052;-66
2024/02/23 08:17:29;;;;;;;14.57;2.60;;;;;;;7.51;86.48;98908.41;5089588;28;20470;-65
2024/02/23 08:19:56;;;;;;;12.63;2.58;;;;;;;7.81;86.01;98901.66;5086984;28;20040;-67
2024/02/23 08:22:24;;;;;;;15.75;1.77;;;;;;;7.59;86.06;98902.84;5088081;28;20052;-66
2024/02/23 08:24:51;;;;;;;18.67;2.30;;;;;;;7.59;85.29;98902.03;5070375;28;20058;-66
2024/02/23 08:27:18;;;;;;;12.82;2.22;;;;;;;7.71;85.89;98902.06;5057845;28;20060;-66
2024/02/23 08:29:46;;;;;;;14.02;2.30;;;;;;;7.56;85.31;98909.00;5091636;28;20040;-67
2024/02/23 08:32:14;;;;;;;13.95;2.67;;;;;;;7.75;85.50;98906.53;5080054;28;20063;-67
2024/02/23 08:34:41;;;;;;;12.98;2.78;;;;;;;7.70;84.69;98895.00;5091611;28;20056;-67
2024/02/23 08:37:10;;;;;;;15.98;3.53;;;;;;;7.71;84.91;98896.56;5099520;28;20048;-66
2024/02/23 08:39:37;;;;;;;10.70;2.20;;;;;;;7.75;85.11;98903.81;5072922;28;20537;-67
2024/02/23 08:42:04;;;;;;;13.35;2.15;;;;;;;7.88;85.76;98912.84;5088308;28;20048;-67
2024/02/23 08:44:32;;;;;;;17.50;2.72;;;;;;;7.98;84.89;98904.19;5086140;28;20056;-66
2024/02/23 08:47:01;;;;;;;12.70;2.30;;;;;;;8.08;84.81;98913.91;5086770;28;20063;-66
2024/02/23 08:49:29;;;;;;;12.02;2.05;;;;;;;7.94;84.03;98917.78;5064607;28;20036;-67
2024/02/23 08:51:58;;;;;;;11.07;1.98;;;;;;;7.97;84.41;98899.84;5108735;27;20042;-69
2024/02/23 08:54:28;;;;;;;12.00;2.08;;;;;;;8.26;83.29;98912.59;5111936;28;20082;-66
2024/02/23 08:56:55;;;;;;;7.95;1.98;;;;;;;8.19;83.33;98921.38;5098267;28;20056;-66
2024/02/23 08:59:22;;;;;;;13.73;2.20;;;;;;;8.41;83.18;98923.69;5095029;28;20043;-67
2024/02/23 09:01:50;;;;;;;10.38;1.48;;;;;;;8.27;83.10;98920.47;5111952;28;20052;-66
2024/02/23 09:04:18;;;;;;;12.13;2.22;;;;;;;8.31;83.04;98915.91;5106354;28;20059;-65
2024/02/23 09:06:45;;;;;;;13.75;2.08;;;;;;;8.41;82.98;98926.44;5093518;28;20051;-66
2024/02/23 09:09:13;;;;;;;15.35;2.45;;;;;;;8.39;81.98;98922.41;5096120;28;20054;-69
2024/02/23 09:11:40;;;;;;;13.25;1.80;;;;;;;8.53;82.46;98922.88;5097041;28;20434;-69
2024/02/23 09:14:08;;;;;;;10.43;2.10;;;;;;;8.64;82.28;98927.56;5100218;28;20055;-69
2024/02/23 09:16:36;;;;;;;13.63;3.00;;;;;;;8.59;81.17;98922.31;5097954;28;20066;-70
2024/02/23 09:19:03;;;;;;;11.60;2.85;;;;;;;8.66;81.51;98914.31;5096702;28;20051;-69
2024/02/23 09:21:31;;;;;;;11.68;2.10;;;;;;;8.65;82.34;98914.63;5096962;28;20048;-69
2024/02/23 09:23:58;;;;;;;14.55;2.22;;;;;;;8.66;81.59;98919.00;5098032;28;20048;-68
2024/02/23 09:26:26;;;;;;;14.30;1.80;;;;;;;8.76;80.77;98916.59;5095361;28;20047;-70
2024/02/23 09:28:53;;;;;;;19.45;2.85;;;;;;;8.87;81.25;98922.41;5082267;28;20044;-69
2024/02/23 09:31:21;;;;;;;13.75;2.38;;;;;;;8.74;81.18;98924.34;5099934;28;20056;-70
2024/02/23 09:33:50;;;;;;;14.50;2.50;;;;;;;8.95;81.65;98907.75;5090437;28;20056;-71
2024/02/23 09:36:18;;;;;;;12.30;2.05;;;;;;;9.19;80.42;98915.91;5057105;28;20052;-71
2024/02/23 09:38:45;;;;;;;10.80;1.75;;;;;;;9.00;80.74;98913.78;5094828;28;20054;-71
2024/02/23 09:41:19;;;;;;;14.35;2.55;;;;;;;9.01;80.58;98909.13;5097411;28;20575;-71
2024/02/23 09:43:50;;;;;;;15.40;2.35;;;;;;;9.29;80.51;98909.13;5103041;28;20067;-70
2024/02/23 09:46:18;;;;;;;15.45;2.30;;;;;;;9.26;79.75;98912.59;5092457;28;20531;-74
2024/02/23 09:48:48;;;;;;;17.92;1.90;;;;;;;9.53;79.26;98909.84;5089536;28;20063;-71
2024/02/23 09:51:16;;;;;;;10.25;2.42;;;;;;;9.67;77.63;98903.94;5076816;28;20048;-72
2024/02/23 09:53:44;;;;;;;11.82;2.22;;;;;;;9.60;78.22;98901.00;5096295;28;20387;-72
2024/02/23 09:56:11;;;;;;;13.30;2.78;;;;;;;9.64;78.48;98907.41;5099805;28;20055;-74
2024/02/23 09:58:39;;;;;;;11.30;2.63;;;;;;;9.46;77.69;98917.91;5093315;28;20054;-71
2024/02/23 10:01:07;;;;;;;13.10;2.70;;;;;;;9.65;77.63;98926.28;5105961;28;20062;-72
2024/02/23 10:03:35;;;;;;;12.52;2.47;;;;;;;9.62;77.11;98910.50;5095787;28;20431;-73
2024/02/23 10:06:03;;;;;;;11.98;1.98;;;;;;;9.79;76.75;98917.63;5103779;28;20052;-71
2024/02/23 10:08:30;;;;;;;15.13;2.35;;;;;;;9.88;75.53;98915.50;5085444;28;20059;-71
2024/02/23 10:11:00;;;;;;;15.98;2.95;;;;;;;9.59;76.39;98922.19;5100396;28;20551;-72
2024/02/23 10:13:29;;;;;;;12.30;2.05;;;;;;;9.46;77.12;98917.91;5104860;28;20495;-71
2024/02/23 10:15:59;;;;;;;11.77;2.17;;;;;;;9.72;77.35;98920.97;5094520;28;20055;-70
2024/02/23 10:18:41;;;;;;;13.40;2.47;;;;;;;9.54;76.08;98918.88;5096838;28;20059;-71
2024/02/23 10:21:09;;;;;;;14.93;1.90;;;;;;;9.56;76.74;98928.38;5115721;27;20109;-74
2024/02/23 10:23:36;;;;;;;13.07;2.10;;;;;;;9.71;76.84;98924.09;5102195;27;20040;-71
2024/02/23 10:26:06;;;;;;;12.40;1.90;;;;;;;9.92;75.06;98908.94;5094157;28;20127;-74
2024/02/23 10:28:40;;;;;;;15.70;1.92;;;;;;;10.15;74.36;98912.72;5093293;28;20052;-72
2024/02/23 10:31:08;;;;;;;11.80;2.75;;;;;;;10.08;74.14;98914.47;5103299;28;20463;-72
2024/02/23 10:33:40;;;;;;;12.35;2.20;;;;;;;10.08;73.92;98922.72;5090937;28;20063;-71
2024/02/23 10:36:10;;;;;;;12.63;2.72;;;;;;;10.18;73.07;98914.00;5071260;28;20515;-72
2024/02/23 10:38:41;;;;;;;11.52;2.25;;;;;;;10.10;73.50;98921.25;5103172;28;20056;-71
2024/02/23 10:41:13;;;;;;;14.55;2.38;;;;;;;9.89;75.05;98915.16;5092969;28;20068;-71
2024/02/23 10:43:52;;;;;;;14.90;2.20;;;;;;;9.69;78.85;98940.13;5095481;28;20525;-71
2024/02/23 10:46:20;;;;;;;13.45;2.28;;;;;;;9.58;81.38;98923.34;5100488;28;20118;-72
2024/02/23 10:48:48;;;;;;;6.45;1.67;;;;;;;9.34;82.40;98922.63;5087875;28;20052;-71
2024/02/23 10:51:16;;;;;;;7.00;1.92;;;;;;;9.21;85.06;98919.13;5101822;28;20347;-71
2024/02/23 10:53:48;;;;;;;6.95;2.13;;;;;;;8.96;85.90;98915.63;5090146;28;20056;-72
2024/02/23 10:56:16;;;;;;;5.95;1.40;;;;;;;8.68;86.63;98919.47;5090108;28;20578;-72
2024/02/23 10:58:44;;;;;;;7.20;1.80;;;;;;;8.80;86.11;98922.19;5090293;28;20068;-71
2024/02/23 11:01:13;;;;;;;10.63;2.10;;;;;;;8.67;87.05;98913.16;5088226;28;20036;-72
2024/02/23 11:03:42;;;;;;;5.27;1.50;;;;;;;8.67;87.82;98910.41;5096957;28;20055;-73
2024/02/23 11:06:10;;;;;;;6.75;1.92;;;;;;;8.91;88.42;98898.59;5107996;28;20066;-72
2024/02/23 11:08:38;;;;;;;8.35;1.75;;;;;;;9.13;88.15;98895.34;5108868;28;20091;-71
2024/02/23 11:11:09;;;;;;;10.75;2.22;;;;;;;9.36;88.12;98896.41;5093796;28;20043;-71
2024/02/23 11:13:38;;;;;;;13.25;2.10;;;;;;;9.50;87.22;98901.50;5101294;28;20054;-72
2024/02/23 11:16:08;;;;;;;6.38;2.08;;;;;;;9.65;86.83;98900.75;5108076;28;20059;-72
2024/02/23 11:18:37;;;;;;;12.38;2.65;;;;;;;9.78;86.27;98897.56;5105331;28;20080;-71
2024/02/23 11:21:06;;;;;;;8.73;1.92;;;;;;;9.95;85.63;98901.94;5082372;28;20059;-74
2024/02/23 11:23:44;;;;;;;5.00;1.50;;;;;;;10.06;83.51;98897.50;5092192;28;20058;-69
2024/02/23 11:26:12;;;;;;;10.82;2.13;;;;;;;9.98;82.85;98902.03;5099509;28;20535;-71
2024/02/23 11:28:44;;;;;;;9.35;1.70;;;;;;;10.23;80.12;98895.25;5090037;28;20066;-70
2024/02/23 11:31:14;;;;;;;14.25;2.22;;;;;;;10.05;78.71;98901.44;5100621;28;20062;-71
2024/02/23 11:33:52;;;;;;;10.63;2.05;;;;;;;10.27;78.08;98898.06;5055551;28;20052;-68
2024/02/23 11:36:30;;;;;;;12.43;2.53;;;;;;;10.65;78.05;98900.19;5102250;27;20047;-65
2024/02/23 11:38:58;;;;;;;9.23;2.30;;;;;;;10.82;76.60;98894.28;5087016;28;20066;-67